createdAt,value
2023-03-24T00:02:16.544Z,26.67
2023-03-24T00:04:52.695Z,25.00
2023-03-24T00:07:25.331Z,27.00
2023-03-24T00:09:55.097Z,25.67
2023-03-24T00:12:23.901Z,26.00
2023-03-24T00:14:55.620Z,25.00
2023-03-24T00:17:25.661Z,25.50
2023-03-24T00:19:56.356Z,25.67
2023-03-24T00:22:28.475Z,27.33
2023-03-24T00:24:58.089Z,26.00
2023-03-24T00:27:30.624Z,26.00
2023-03-24T00:30:00.212Z,25.67
2023-03-24T00:32:30.581Z,27.33
2023-03-24T00:35:01.196Z,27.33
2023-03-24T00:37:30.281Z,27.00
2023-03-24T00:39:59.914Z,28.00
2023-03-24T00:42:29.576Z,27.00
2023-03-24T00:44:58.681Z,27.50
2023-03-24T00:47:27.556Z,24.50
2023-03-24T00:49:58.149Z,28.00
2023-03-24T00:52:34.244Z,28.33
2023-03-24T00:55:06.718Z,29.50
2023-03-24T00:57:35.573Z,29.00
2023-03-24T01:00:14.718Z,32.00
2023-03-24T01:02:46.660Z,34.00
2023-03-24T01:05:17.875Z,33.00
2023-03-24T01:07:52.159Z,32.00
2023-03-24T01:10:27.042Z,30.50
2023-03-24T01:12:59.290Z,30.50
2023-03-24T01:15:34.617Z,30.50
2023-03-24T01:18:04.180Z,30.00
2023-03-24T01:20:33.766Z,30.50
2023-03-24T01:23:07.470Z,31.00
2023-03-24T01:25:38.034Z,29.50
2023-03-24T01:28:07.185Z,32.00
2023-03-24T01:30:37.205Z,31.67
2023-03-24T01:33:06.987Z,30.00
2023-03-24T01:35:37.445Z,32.00
2023-03-24T01:38:13.434Z,29.00
2023-03-24T01:40:47.531Z,28.00
2023-03-24T01:43:28.130Z,30.67
2023-03-24T01:46:08.543Z,30.00
2023-03-24T01:49:06.891Z,31.50
2023-03-24T01:51:54.134Z,31.50
2023-03-24T01:54:43.354Z,32.00
2023-03-24T01:57:30.577Z,32.00
2023-03-24T02:00:09.449Z,32.00
2023-03-24T02:03:12.888Z,32.00
2023-03-24T02:05:47.899Z,32.00
2023-03-24T02:08:52.864Z,28.00
2023-03-24T02:11:23.822Z,10.00
2023-03-24T02:13:54.116Z,30.00
2023-03-24T02:16:48.382Z,32.67
2023-03-24T02:19:54.215Z,30.00
2023-03-24T02:23:06.900Z,0.00
2023-03-24T02:26:14.056Z,31.00
2023-03-24T02:29:24.592Z,31.67
2023-03-24T02:32:14.885Z,31.00
2023-03-24T02:36:10.545Z,30.00
2023-03-24T02:39:09.561Z,28.00
2023-03-24T02:41:50.797Z,30.00
2023-03-24T02:44:39.726Z,31.67
2023-03-24T02:47:47.883Z,27.50
2023-03-24T02:50:31.983Z,30.50
2023-03-24T02:53:32.385Z,30.00
2023-03-24T02:56:36.816Z,30.00
2023-03-24T02:59:37.747Z,27.00
2023-03-24T03:02:25.561Z,30.00
2023-03-24T03:05:21.509Z,31.00
2023-03-24T03:07:53.858Z,31.00
2023-03-24T03:10:34.726Z,32.00
2023-03-24T03:13:32.669Z,31.00
2023-03-24T03:16:25.621Z,31.67
2023-03-24T03:19:05.477Z,31.00
2023-03-24T03:21:43.178Z,31.00
2023-03-24T03:24:43.542Z,31.00
2023-03-24T03:27:21.416Z,31.00
2023-03-24T03:30:09.821Z,30.00
2023-03-24T03:32:54.644Z,30.00
2023-03-24T03:35:31.943Z,29.00
2023-03-24T03:38:16.516Z,29.00
2023-03-24T03:40:59.713Z,31.50
2023-03-24T03:43:31.550Z,31.50
2023-03-24T03:46:02.227Z,32.00
2023-03-24T03:48:32.307Z,38.00
2023-03-24T03:51:13.095Z,36.00
2023-03-24T03:54:13.840Z,34.67
2023-03-24T03:56:44.201Z,33.67
2023-03-24T03:59:35.628Z,34.00
2023-03-24T04:02:58.756Z,33.00
2023-03-24T04:05:53.778Z,32.33
2023-03-24T04:08:47.111Z,30.33
2023-03-24T04:11:56.717Z,32.00
2023-03-24T04:14:41.206Z,31.33
2023-03-24T04:17:58.253Z,43.67
2023-03-24T04:20:51.001Z,32.00
2023-03-24T04:23:46.238Z,31.67
2023-03-24T04:26:50.689Z,31.00
2023-03-24T04:29:53.462Z,30.50
2023-03-24T04:33:00.901Z,32.33
2023-03-24T04:35:40.957Z,31.67
2023-03-24T04:38:26.012Z,32.00
2023-03-24T04:40:57.394Z,29.00
2023-03-24T04:43:36.298Z,29.00
2023-03-24T04:46:09.182Z,38.33
2023-03-24T04:48:39.050Z,34.33
2023-03-24T04:51:11.448Z,34.67
2023-03-24T04:53:41.103Z,32.33
2023-03-24T04:56:36.435Z,31.33
2023-03-24T04:59:07.593Z,31.33
2023-03-24T05:01:37.830Z,35.00
2023-03-24T05:04:08.629Z,34.33
2023-03-24T05:06:38.254Z,35.00
2023-03-24T05:09:08.121Z,36.00
2023-03-24T05:11:38.045Z,36.00
2023-03-24T05:14:07.787Z,40.00
2023-03-24T05:16:37.696Z,40.00
2023-03-24T05:19:07.970Z,39.00
2023-03-24T05:21:38.270Z,38.75
2023-03-24T05:24:08.839Z,38.00
2023-03-24T05:26:38.515Z,38.67
2023-03-24T05:29:08.122Z,35.00
2023-03-24T05:31:37.746Z,33.00
2023-03-24T05:34:07.421Z,38.00
2023-03-24T05:36:37.004Z,35.67
2023-03-24T05:39:06.621Z,33.33
2023-03-24T05:41:36.211Z,35.00
2023-03-24T05:44:04.094Z,32.00
2023-03-24T05:46:33.766Z,32.00
2023-03-24T05:49:03.407Z,30.67
2023-03-24T05:51:33.006Z,31.67
2023-03-24T05:54:02.738Z,32.00
2023-03-24T05:56:33.170Z,33.00
2023-03-24T05:59:02.982Z,33.33
2023-03-24T06:01:32.573Z,34.00
2023-03-24T06:04:02.368Z,34.67
2023-03-24T06:06:32.378Z,33.67
2023-03-24T06:09:05.333Z,33.67
2023-03-24T06:11:34.980Z,30.67
2023-03-24T06:14:04.575Z,31.67
2023-03-24T06:16:34.305Z,30.67
2023-03-24T06:19:03.937Z,35.00
2023-03-24T06:21:35.874Z,28.50
2023-03-24T06:24:05.970Z,30.00
2023-03-24T06:26:35.704Z,29.67
2023-03-24T06:29:04.467Z,30.67
2023-03-24T06:31:36.086Z,29.33
2023-03-24T06:34:05.927Z,28.00
2023-03-24T06:36:35.497Z,29.00
2023-03-24T06:39:06.346Z,28.67
2023-03-24T06:41:35.544Z,28.00
2023-03-24T06:44:05.134Z,28.00
2023-03-24T06:46:33.948Z,28.00
2023-03-24T06:49:04.044Z,29.00
2023-03-24T06:51:33.138Z,28.67
2023-03-24T06:54:03.496Z,28.00
2023-03-24T06:56:32.202Z,26.00
2023-03-24T06:59:02.570Z,27.33
2023-03-24T07:01:32.431Z,28.33
2023-03-24T07:04:02.991Z,28.00
2023-03-24T07:06:38.118Z,28.00
2023-03-24T07:09:15.342Z,28.00
2023-03-24T07:11:43.994Z,27.00
2023-03-24T07:14:13.539Z,28.33
2023-03-24T07:16:42.321Z,28.00
2023-03-24T07:19:11.084Z,28.67
2023-03-24T07:21:40.667Z,24.33
2023-03-24T07:24:09.360Z,27.00
2023-03-24T07:26:38.898Z,27.00
2023-03-24T07:29:07.625Z,25.67
2023-03-24T07:31:38.944Z,28.33
2023-03-24T07:34:08.668Z,29.00
2023-03-24T07:36:38.173Z,28.00
2023-03-24T07:39:07.266Z,26.67
2023-03-24T07:41:36.241Z,27.00
2023-03-24T07:44:06.108Z,27.33
2023-03-24T07:46:35.051Z,28.67
2023-03-24T07:49:18.326Z,25.00
2023-03-24T07:51:49.167Z,28.67
2023-03-24T07:54:18.052Z,27.00
2023-03-24T07:56:46.811Z,28.50
2023-03-24T07:59:15.534Z,27.67
2023-03-24T08:01:46.178Z,25.00
2023-03-24T08:04:17.106Z,27.00
2023-03-24T08:06:47.088Z,26.67
2023-03-24T08:09:16.408Z,27.33
2023-03-24T08:11:46.516Z,24.67
2023-03-24T08:14:15.623Z,28.33
2023-03-24T08:16:46.568Z,25.00
2023-03-24T08:19:15.384Z,27.00
2023-03-24T08:21:44.419Z,26.50
2023-03-24T08:24:13.104Z,26.67
2023-03-24T08:26:43.064Z,28.00
2023-03-24T08:29:12.647Z,28.00
2023-03-24T08:31:41.412Z,27.00
2023-03-24T08:34:11.901Z,27.00
2023-03-24T08:36:41.567Z,28.00
2023-03-24T08:39:10.317Z,24.00
2023-03-24T08:41:39.917Z,28.33
2023-03-24T08:44:10.470Z,27.67
2023-03-24T08:46:41.166Z,26.00
2023-03-24T08:49:10.068Z,26.67
2023-03-24T08:51:39.764Z,26.00
2023-03-24T08:54:09.656Z,25.67
2023-03-24T08:56:40.580Z,26.00
2023-03-24T08:59:09.303Z,26.00
2023-03-24T09:01:38.432Z,21.50
2023-03-24T09:04:08.499Z,24.67
2023-03-24T09:06:37.349Z,23.67
2023-03-24T09:09:08.338Z,24.00
2023-03-24T09:11:38.693Z,23.67
2023-03-24T09:14:07.514Z,22.67
2023-03-24T09:16:36.230Z,23.00
2023-03-24T09:19:05.400Z,25.00
2023-03-24T09:21:34.086Z,22.33
2023-03-24T09:24:03.501Z,21.00
2023-03-24T09:26:34.118Z,22.67
2023-03-24T09:29:03.321Z,23.33
2023-03-24T09:31:32.182Z,24.00
2023-03-24T09:34:04.141Z,24.00
2023-03-24T09:36:33.134Z,24.00
2023-03-24T09:39:01.801Z,22.00
2023-03-24T09:41:34.520Z,23.00
2023-03-24T09:44:27.298Z,22.00
2023-03-24T09:47:27.572Z,18.00
2023-03-24T09:50:03.719Z,22.00
2023-03-24T09:52:41.855Z,21.00
2023-03-24T09:55:25.539Z,11.00
2023-03-24T09:58:03.838Z,7.33
2023-03-24T10:00:34.754Z,7.67
2023-03-24T10:03:23.183Z,7.33
2023-03-24T10:06:38.769Z,8.00
2023-03-24T10:09:29.121Z,6.67
2023-03-24T10:12:27.564Z,8.00
2023-03-24T10:15:42.538Z,8.00
2023-03-24T10:18:19.813Z,7.67
2023-03-24T10:21:18.052Z,7.00
2023-03-24T10:24:25.299Z,8.67
2023-03-24T10:27:48.471Z,10.00
2023-03-24T10:30:33.980Z,10.00
2023-03-24T10:33:02.757Z,7.33
2023-03-24T10:36:07.105Z,8.00
2023-03-24T10:38:36.895Z,9.00
2023-03-24T10:41:06.318Z,7.67
2023-03-24T10:43:34.958Z,9.00
2023-03-24T10:46:04.476Z,10.00
2023-03-24T10:48:51.854Z,7.00
2023-03-24T10:51:32.787Z,8.00
2023-03-24T10:54:32.126Z,9.67
2023-03-24T10:57:00.877Z,9.00
2023-03-24T10:59:40.854Z,9.67
2023-03-24T11:02:26.230Z,10.67
2023-03-24T11:05:12.364Z,10.00
2023-03-24T11:07:49.799Z,10.33
2023-03-24T11:10:26.277Z,11.00
2023-03-24T11:12:54.657Z,10.00
2023-03-24T11:15:30.822Z,11.33
2023-03-24T11:18:11.528Z,10.00
2023-03-24T11:20:46.265Z,10.00
2023-03-24T11:23:44.879Z,7.20
2023-03-24T11:26:22.382Z,10.00
2023-03-24T11:29:03.881Z,8.33
2023-03-24T11:31:38.495Z,7.00
2023-03-24T11:34:39.013Z,10.00
2023-03-24T11:37:25.949Z,9.33
2023-03-24T11:40:13.331Z,8.67
2023-03-24T11:43:03.141Z,7.00
2023-03-24T11:45:41.217Z,8.00
2023-03-24T11:48:51.089Z,8.33
2023-03-24T11:51:35.641Z,9.33
2023-03-24T11:54:16.241Z,6.00
2023-03-24T11:56:58.077Z,6.00
2023-03-24T11:59:44.101Z,5.00
2023-03-24T12:02:26.102Z,5.00
2023-03-24T12:05:43.180Z,6.00
2023-03-24T12:09:05.930Z,4.00
2023-03-24T12:12:01.611Z,4.67
2023-03-24T12:15:25.139Z,3.00
2023-03-24T12:18:19.789Z,5.67
2023-03-24T12:21:39.100Z,5.67
2023-03-24T12:24:45.059Z,5.20
2023-03-24T12:27:46.315Z,4.67
2023-03-24T12:31:05.492Z,4.00
2023-03-24T12:34:04.860Z,5.00
2023-03-24T12:37:35.833Z,5.33
2023-03-24T12:40:36.092Z,4.00
2023-03-24T12:43:36.120Z,4.60
2023-03-24T12:47:24.586Z,3.67
2023-03-24T12:50:26.580Z,6.00
2023-03-24T12:53:23.288Z,5.60
2023-03-24T12:56:01.045Z,5.00
2023-03-24T12:58:45.988Z,6.40
2023-03-24T13:01:40.857Z,4.60
2023-03-24T13:04:34.450Z,6.00
2023-03-24T13:07:07.949Z,5.40
2023-03-24T13:10:20.704Z,6.00
2023-03-24T13:13:21.834Z,6.00
2023-03-24T13:16:21.385Z,6.00
2023-03-24T13:18:56.978Z,4.40
2023-03-24T13:21:28.035Z,5.00
2023-03-24T13:24:12.859Z,6.00
2023-03-24T13:27:26.055Z,5.00
2023-03-24T13:30:37.253Z,3.40
2023-03-24T13:33:24.281Z,3.40
2023-03-24T13:36:10.467Z,4.60
2023-03-24T13:38:56.353Z,6.00
2023-03-24T13:41:27.502Z,6.20
2023-03-24T13:44:24.540Z,6.67
2023-03-24T13:47:17.554Z,5.00
2023-03-24T13:50:04.903Z,5.67
2023-03-24T13:52:45.201Z,3.00
2023-03-24T13:55:24.295Z,3.80
2023-03-24T13:58:04.643Z,5.67
2023-03-24T14:00:34.537Z,4.00
2023-03-24T14:03:17.424Z,5.20
2023-03-24T14:06:05.870Z,5.00
2023-03-24T14:08:52.408Z,7.00
2023-03-24T14:11:41.600Z,5.00
2023-03-24T14:14:21.015Z,5.00
2023-03-24T14:17:08.211Z,5.80
2023-03-24T14:19:44.014Z,5.67
2023-03-24T14:22:27.782Z,5.20
2023-03-24T14:25:17.281Z,6.33
2023-03-24T14:27:54.502Z,7.00
2023-03-24T14:30:38.190Z,5.67
2023-03-24T14:33:22.390Z,7.00
2023-03-24T14:36:06.700Z,6.00
2023-03-24T14:38:42.431Z,5.80
2023-03-24T14:41:26.869Z,6.00
2023-03-24T14:43:59.869Z,5.00
2023-03-24T14:46:48.194Z,5.00
2023-03-24T14:49:33.111Z,5.00
2023-03-24T14:52:28.175Z,5.00
2023-03-24T14:55:01.476Z,3.80
2023-03-24T14:57:47.779Z,5.20
2023-03-24T15:00:35.219Z,4.60
2023-03-24T15:03:28.696Z,4.40
2023-03-24T15:06:14.596Z,5.00
2023-03-24T15:08:55.328Z,5.00
2023-03-24T15:11:31.269Z,5.00
2023-03-24T15:14:06.153Z,4.00
2023-03-24T15:16:38.992Z,4.25
2023-03-24T15:19:20.132Z,5.00
2023-03-24T15:21:58.950Z,4.00
2023-03-24T15:24:38.395Z,5.00
2023-03-24T15:27:07.866Z,5.20
2023-03-24T15:29:41.626Z,3.00
2023-03-24T15:32:24.547Z,1.40
2023-03-24T15:35:06.190Z,5.00
2023-03-24T15:37:43.222Z,4.60
2023-03-24T15:40:29.951Z,4.60
2023-03-24T15:43:03.569Z,5.33
2023-03-24T15:45:51.030Z,4.00
2023-03-24T15:48:26.656Z,5.00
2023-03-24T15:51:02.027Z,5.60
2023-03-24T15:53:49.507Z,7.80
2023-03-24T15:56:36.548Z,27.00
2023-03-24T15:59:15.861Z,17.67
2023-03-24T16:01:45.674Z,10.50
2023-03-24T16:04:20.643Z,12.33
2023-03-24T16:06:54.399Z,9.33
2023-03-24T16:09:28.166Z,7.00
2023-03-24T16:11:56.659Z,7.67
2023-03-24T16:14:28.583Z,14.00
2023-03-24T16:17:02.416Z,19.00
2023-03-24T16:19:31.578Z,12.50
2023-03-24T16:22:00.176Z,8.00
2023-03-24T16:24:28.915Z,12.00
2023-03-24T16:26:57.645Z,13.00
2023-03-24T16:29:25.668Z,10.50
2023-03-24T16:31:57.441Z,6.67
2023-03-24T16:34:25.777Z,8.00
2023-03-24T16:36:56.825Z,6.60
2023-03-24T16:39:29.336Z,9.33
2023-03-24T16:41:59.052Z,7.00
2023-03-24T16:44:28.390Z,7.00
2023-03-24T16:46:58.044Z,8.00
2023-03-24T16:49:27.376Z,8.67
2023-03-24T16:51:55.295Z,10.00
2023-03-24T16:54:24.055Z,9.00
2023-03-24T16:56:51.916Z,9.00
2023-03-24T16:59:21.021Z,16.50
2023-03-24T17:01:49.752Z,11.00
2023-03-24T17:04:22.528Z,12.50
2023-03-24T17:06:54.624Z,11.50
2023-03-24T17:09:24.306Z,12.67
2023-03-24T17:11:57.624Z,13.00
2023-03-24T17:14:26.527Z,15.33
2023-03-24T17:16:55.221Z,13.50
2023-03-24T17:19:24.982Z,11.00
2023-03-24T17:22:03.714Z,15.00
2023-03-24T17:24:36.891Z,14.00
2023-03-24T17:27:19.034Z,14.00
2023-03-24T17:29:48.739Z,16.67
2023-03-24T17:32:17.942Z,20.00
2023-03-24T17:34:47.742Z,18.67
2023-03-24T17:37:17.213Z,22.00
2023-03-24T17:39:45.942Z,20.00
2023-03-24T17:42:14.668Z,20.33
2023-03-24T17:44:43.326Z,20.00
2023-03-24T17:47:11.990Z,18.00
2023-03-24T17:49:41.596Z,19.00
2023-03-24T17:52:11.466Z,22.33
2023-03-24T17:54:40.249Z,20.33
2023-03-24T17:57:11.911Z,27.33
2023-03-24T17:59:42.231Z,24.67
2023-03-24T18:02:14.426Z,26.67
2023-03-24T18:04:43.933Z,26.00
2023-03-24T18:07:12.646Z,25.00
2023-03-24T18:09:42.214Z,23.00
2023-03-24T18:12:11.113Z,23.33
2023-03-24T18:14:58.699Z,24.00
2023-03-24T18:17:28.669Z,20.75
2023-03-24T18:19:59.829Z,25.00
2023-03-24T18:22:28.574Z,24.00
2023-03-24T18:24:58.593Z,25.00
2023-03-24T18:27:27.358Z,27.33
2023-03-24T18:29:56.992Z,28.00
2023-03-24T18:32:27.418Z,27.50
2023-03-24T18:35:00.957Z,31.50
2023-03-24T18:37:30.608Z,31.50
2023-03-24T18:39:59.403Z,30.67
2023-03-24T18:42:28.797Z,29.00
2023-03-24T18:44:57.524Z,34.67
2023-03-24T18:47:26.438Z,32.33
2023-03-24T18:49:56.199Z,43.50
2023-03-24T18:52:25.877Z,38.00
2023-03-24T18:54:55.998Z,39.25
2023-03-24T18:57:25.605Z,38.50
2023-03-24T18:59:55.517Z,40.67
2023-03-24T19:02:25.199Z,42.00
2023-03-24T19:04:54.825Z,37.67
2023-03-24T19:07:26.461Z,38.33
2023-03-24T19:09:56.805Z,36.25
2023-03-24T19:12:28.427Z,42.00
2023-03-24T19:14:56.293Z,35.00
2023-03-24T19:17:27.615Z,38.50
2023-03-24T19:19:58.301Z,35.00
2023-03-24T19:22:27.479Z,35.67
2023-03-24T19:24:57.109Z,36.67
2023-03-24T19:27:27.527Z,36.00
2023-03-24T19:29:57.310Z,36.33
2023-03-24T19:32:26.942Z,33.50
2023-03-24T19:34:55.701Z,35.00
2023-03-24T19:37:25.301Z,32.67
2023-03-24T19:39:55.080Z,33.00
2023-03-24T19:42:26.686Z,35.00
2023-03-24T19:44:56.288Z,35.67
2023-03-24T19:47:25.946Z,34.00
2023-03-24T19:49:57.055Z,32.33
2023-03-24T19:52:26.237Z,32.67
2023-03-24T19:54:56.152Z,30.67
2023-03-24T19:57:25.813Z,31.00
2023-03-24T19:59:54.525Z,28.67
2023-03-24T20:02:24.957Z,29.00
2023-03-24T20:04:55.562Z,26.67
2023-03-24T20:07:24.978Z,27.33
2023-03-24T20:09:53.709Z,21.00
2023-03-24T20:12:22.491Z,21.67
2023-03-24T20:14:51.276Z,20.33
2023-03-24T20:17:23.400Z,17.67
2023-03-24T20:19:54.449Z,17.00
2023-03-24T20:22:24.187Z,16.00
2023-03-24T20:24:52.817Z,16.33
2023-03-24T20:27:22.368Z,17.67
2023-03-24T20:29:51.162Z,14.00
2023-03-24T20:32:20.008Z,14.50
2023-03-24T20:34:49.321Z,15.33
2023-03-24T20:37:18.340Z,14.50
2023-03-24T20:39:47.185Z,16.67
2023-03-24T20:42:18.306Z,16.67
2023-03-24T20:44:47.057Z,16.00
2023-03-24T20:47:15.958Z,16.00
2023-03-24T20:49:45.182Z,16.33
2023-03-24T20:52:15.960Z,16.33
2023-03-24T20:54:44.628Z,17.00
2023-03-24T20:57:13.462Z,13.00
2023-03-24T20:59:43.022Z,16.67
2023-03-24T21:02:12.615Z,13.33
2023-03-24T21:04:41.334Z,13.50
2023-03-24T21:07:10.325Z,12.00
2023-03-24T21:09:39.244Z,13.00
2023-03-24T21:12:09.294Z,15.00
2023-03-24T21:14:38.013Z,12.00
2023-03-24T21:17:06.890Z,13.00
2023-03-24T21:19:37.476Z,15.50
2023-03-24T21:22:06.956Z,17.00
2023-03-24T21:24:35.884Z,16.33
2023-03-24T21:27:04.618Z,18.00
2023-03-24T21:29:33.476Z,20.00
2023-03-24T21:32:02.191Z,20.00
2023-03-24T21:34:30.877Z,20.00
2023-03-24T21:37:01.813Z,19.67
2023-03-24T21:39:30.621Z,21.00
2023-03-24T21:41:59.341Z,21.67
2023-03-24T21:44:28.097Z,21.00
2023-03-24T21:46:56.768Z,19.67
2023-03-24T21:49:25.437Z,20.67
2023-03-24T21:51:55.293Z,21.00
2023-03-24T21:54:26.945Z,18.67
2023-03-24T21:56:55.684Z,17.00
2023-03-24T21:59:24.428Z,17.33
2023-03-24T22:01:53.216Z,20.00
2023-03-24T22:04:24.996Z,19.33
2023-03-24T22:06:54.642Z,19.67
2023-03-24T22:09:27.630Z,17.67
2023-03-24T22:11:57.508Z,17.00
2023-03-24T22:14:26.470Z,22.33
2023-03-24T22:16:56.068Z,22.00
2023-03-24T22:19:24.968Z,21.00
2023-03-24T22:22:00.608Z,21.00
2023-03-24T22:24:32.128Z,20.00
2023-03-24T22:27:01.166Z,19.67
2023-03-24T22:29:29.915Z,19.00
2023-03-24T22:31:58.703Z,19.00
2023-03-24T22:34:27.823Z,19.33
2023-03-24T22:36:56.483Z,21.67
2023-03-24T22:39:26.161Z,20.67
2023-03-24T22:41:56.852Z,22.00
2023-03-24T22:44:25.676Z,21.67
2023-03-24T22:46:54.879Z,20.67
2023-03-24T22:49:23.667Z,20.00
2023-03-24T22:51:53.166Z,21.67
2023-03-24T22:54:21.938Z,21.67
2023-03-24T22:56:51.160Z,20.00
2023-03-24T22:59:20.390Z,22.67
2023-03-24T23:01:56.118Z,21.00
2023-03-24T23:04:34.927Z,21.67
2023-03-24T23:07:05.441Z,21.67
2023-03-24T23:09:36.782Z,20.00
2023-03-24T23:12:06.254Z,22.33
2023-03-24T23:14:35.036Z,22.00
2023-03-24T23:17:05.385Z,22.00
2023-03-24T23:19:35.593Z,23.00
2023-03-24T23:22:05.541Z,21.67
2023-03-24T23:24:39.530Z,19.00
2023-03-24T23:27:09.292Z,19.33
2023-03-24T23:29:41.832Z,22.67
2023-03-24T23:32:10.566Z,22.00
2023-03-24T23:34:42.924Z,23.00
2023-03-24T23:37:11.818Z,24.00
2023-03-24T23:39:40.742Z,22.00
2023-03-24T23:42:09.461Z,20.00
2023-03-24T23:44:38.784Z,22.00
2023-03-24T23:47:08.464Z,22.67
2023-03-24T23:49:37.356Z,19.67
2023-03-24T23:52:06.338Z,22.67
2023-03-24T23:54:35.888Z,22.67
2023-03-24T23:57:04.756Z,20.67
2023-03-24T23:59:33.687Z,20.00
